»·PEaware :: N872G KBFI-O22

N872G :: KBFI-O22

FLIGHT INFORMATION

Flight Status: Arrived
Operator: Privately registered:
United States
More flights under this callsign
Pilot: Gabor H. (24209)
Aircraft: CESSNA 510 CITATION MUSTANG
(C510)
More flights by this aircraft type
Origin: KBFI Boeing Field/King Co Intl
United States
Destination: O22 Columbia
United States
More flights between these airports :: More routes between these airports
Route: +KENT8 ZIGED ALDER J189 LIN V459 HABXU
File this flight plan on PilotEdge
Remarks:
Altitude:
(Current/Filed)
37,000ft
Speed:
(Current/Filed)
340kts
Departed: 23-Oct-20 01:19 PM
Arrived: 23-Oct-20 03:05 PM
Distance/Time
Traveled:
576nm/1:46
Distance/Time
To Go:
Arrived

Flight Plot

Page will automatically refresh every two minutes.

Flight plan parsing failed; only flown route is shown


Map Options




Map Legend


Flown Route
Filed Route
Departure Airport
Arrival Airport
Navaid (VOR, NDB)
Fix

Horizontal Profiles

Position Reports

Time Latitude Longitude Heading Altitude Ground
Speed
23-Oct-20 12:57 47.524945 -122.295197 182 22ft 0kts
23-Oct-20 12:58 47.524945 -122.295197 182 22ft 0kts
23-Oct-20 12:59 47.524945 -122.295197 182 22ft 0kts
23-Oct-20 13:00 47.524945 -122.295197 182 22ft 0kts
23-Oct-20 13:01 47.524945 -122.295197 182 22ft 0kts
23-Oct-20 13:02 47.524945 -122.295197 182 22ft 0kts
23-Oct-20 13:03 47.524945 -122.295197 182 22ft 0kts
23-Oct-20 13:04 47.524945 -122.295197 182 22ft 0kts
23-Oct-20 13:05 47.524945 -122.295197 182 22ft 0kts
23-Oct-20 13:06 47.524945 -122.295197 182 22ft 0kts
23-Oct-20 13:07 47.524945 -122.295197 182 22ft 0kts
23-Oct-20 13:08 47.524945 -122.295197 182 22ft 0kts
23-Oct-20 13:09 47.524945 -122.295197 182 22ft 0kts
23-Oct-20 13:10 47.524945 -122.295197 182 22ft 0kts
23-Oct-20 13:11 47.524672 -122.296335 314 21ft 17kts
23-Oct-20 13:12 47.529498 -122.299063 331 22ft 20kts
23-Oct-20 13:13 47.536037 -122.304670 322 22ft 19kts
23-Oct-20 13:14 47.540045 -122.308207 327 23ft 11kts
23-Oct-20 13:15 47.540888 -122.310120 238 23ft 0kts
23-Oct-20 13:16 47.540888 -122.310120 238 23ft 0kts
23-Oct-20 13:17 47.539878 -122.310810 151 22ft 7kts
23-Oct-20 13:18 47.519501 -122.292914 147 966ft 158kts
23-Oct-20 13:19 47.476345 -122.255018 152 2044ft 185kts
23-Oct-20 13:20 47.431124 -122.217108 151 2043ft 187kts
23-Oct-20 13:21 47.382723 -122.175757 154 4469ft 193kts
23-Oct-20 13:22 47.335426 -122.135732 157 6756ft 201kts
23-Oct-20 13:23 47.277566 -122.152462 209 8484ft 252kts
23-Oct-20 13:24 47.213350 -122.189126 212 10373ft 249kts
23-Oct-20 13:25 47.152303 -122.224188 215 13194ft 227kts
23-Oct-20 13:26 47.091748 -122.259695 216 15531ft 241kts
23-Oct-20 13:27 47.028202 -122.296437 216 17708ft 252kts
23-Oct-20 13:28 46.961685 -122.334899 215 19643ft 264kts
23-Oct-20 13:29 46.894294 -122.373537 214 21337ft 275kts
23-Oct-20 13:30 46.821424 -122.413947 204 22881ft 294kts
23-Oct-20 13:31 46.737351 -122.428785 197 24298ft 310kts
23-Oct-20 13:32 46.650860 -122.443067 197 25589ft 318kts
23-Oct-20 13:33 46.561707 -122.457907 197 26773ft 327kts
23-Oct-20 13:34 46.470712 -122.473032 197 27856ft 334kts
23-Oct-20 13:35 46.377499 -122.488495 197 28940ft 338kts
23-Oct-20 13:36 46.283675 -122.503993 196 29984ft 343kts
23-Oct-20 13:37 46.188566 -122.519669 196 30971ft 347kts
23-Oct-20 13:38 46.089628 -122.536112 196 31997ft 370kts
23-Oct-20 13:39 45.985392 -122.553088 195 33023ft 384kts
23-Oct-20 13:40 45.879710 -122.570306 195 34015ft 393kts
23-Oct-20 13:41 45.770636 -122.587924 195 34955ft 398kts
23-Oct-20 13:42 45.657470 -122.569416 176 35904ft 416kts
23-Oct-20 13:43 45.543466 -122.539931 176 36860ft 417kts
23-Oct-20 13:45 45.427196 -122.510513 176 37120ft 436kts
23-Oct-20 13:46 45.306818 -122.480155 175 37114ft 438kts
23-Oct-20 13:47 45.189352 -122.450637 176 37121ft 421kts
23-Oct-20 13:48 45.075243 -122.422553 175 37129ft 411kts
23-Oct-20 13:49 44.963463 -122.394976 172 37134ft 404kts
23-Oct-20 13:50 44.857641 -122.367931 172 37120ft 398kts
23-Oct-20 13:51 44.749703 -122.340877 172 37124ft 393kts
23-Oct-20 13:52 44.642427 -122.314398 172 37123ft 390kts
23-Oct-20 13:53 44.536408 -122.288352 172 37124ft 388kts
23-Oct-20 13:54 44.429995 -122.262373 172 37126ft 388kts
23-Oct-20 13:55 44.323792 -122.236502 172 37126ft 388kts
23-Oct-20 13:56 44.217714 -122.210731 172 37117ft 388kts
23-Oct-20 13:56 44.129110 -122.189324 172 37113ft 389kts
23-Oct-20 13:58 44.005021 -122.159403 172 37107ft 389kts
23-Oct-20 13:58 43.916263 -122.138081 172 37107ft 390kts
23-Oct-20 14:00 43.795364 -122.109157 172 37097ft 389kts
23-Oct-20 14:00 43.706930 -122.088021 172 37098ft 388kts
23-Oct-20 14:01 43.600673 -122.062814 172 37100ft 387kts
23-Oct-20 14:02 43.494712 -122.037742 172 37102ft 388kts
23-Oct-20 14:03 43.388616 -122.012671 172 37131ft 387kts
23-Oct-20 14:05 43.265169 -121.983644 172 37154ft 387kts
23-Oct-20 14:05 43.176735 -121.962976 172 37186ft 387kts
23-Oct-20 14:06 43.070863 -121.938219 172 37186ft 388kts
23-Oct-20 14:07 42.964411 -121.913447 172 37161ft 390kts
23-Oct-20 14:08 42.860032 -121.889789 170 37151ft 390kts
23-Oct-20 14:09 42.753513 -121.864857 170 37152ft 388kts
23-Oct-20 14:10 42.647624 -121.840309 171 37154ft 387kts
23-Oct-20 14:11 42.541470 -121.815900 171 37155ft 387kts
23-Oct-20 14:12 42.435611 -121.791731 171 37157ft 387kts
23-Oct-20 14:13 42.329374 -121.767522 171 37157ft 387kts
23-Oct-20 14:14 42.223288 -121.743429 171 37158ft 388kts
23-Oct-20 14:15 42.116993 -121.720659 172 37160ft 388kts
23-Oct-20 14:16 42.010346 -121.700598 172 37162ft 389kts
23-Oct-20 14:17 41.903450 -121.680626 172 37163ft 389kts
23-Oct-20 14:18 41.798475 -121.660958 172 37152ft 388kts
23-Oct-20 14:19 41.692125 -121.641181 172 37153ft 387kts
23-Oct-20 14:20 41.585405 -121.621357 172 37155ft 387kts
23-Oct-20 14:21 41.478967 -121.601665 172 37156ft 387kts
23-Oct-20 14:22 41.372580 -121.582112 172 37157ft 388kts
23-Oct-20 14:23 41.265831 -121.562440 172 37158ft 388kts
23-Oct-20 14:24 41.158674 -121.542794 172 37115ft 390kts
23-Oct-20 14:25 41.051224 -121.523798 171 37071ft 391kts
23-Oct-20 14:26 40.943915 -121.504827 167 37006ft 390kts
23-Oct-20 14:27 40.840554 -121.485287 167 36995ft 385kts
23-Oct-20 14:28 40.734949 -121.465906 167 36996ft 382kts
23-Oct-20 14:29 40.629963 -121.446941 167 36995ft 381kts
23-Oct-20 14:30 40.525415 -121.428115 167 37009ft 379kts
23-Oct-20 14:31 40.421543 -121.409537 167 37024ft 378kts
23-Oct-20 14:32 40.317415 -121.390903 168 37038ft 378kts
23-Oct-20 14:33 40.213605 -121.372420 168 37051ft 379kts
23-Oct-20 14:34 40.109116 -121.353923 167 37049ft 379kts
23-Oct-20 14:35 40.004932 -121.335425 168 37021ft 381kts
23-Oct-20 14:36 39.900171 -121.316954 169 37010ft 382kts
23-Oct-20 14:37 39.796932 -121.298861 168 36997ft 381kts
23-Oct-20 14:38 39.692126 -121.280519 168 36997ft 380kts
23-Oct-20 14:39 39.587618 -121.262228 168 37023ft 380kts
23-Oct-20 14:40 39.483459 -121.244057 168 37050ft 379kts
23-Oct-20 14:41 39.378443 -121.225796 168 36584ft 394kts
23-Oct-20 14:42 39.267987 -121.206642 168 34600ft 403kts
23-Oct-20 14:43 39.158151 -121.187599 169 32612ft 395kts
23-Oct-20 14:44 39.050759 -121.168962 170 30671ft 389kts
23-Oct-20 14:45 38.942205 -121.148922 175 28703ft 399kts
23-Oct-20 14:46 38.837250 -121.131917 176 26708ft 354kts
23-Oct-20 14:47 38.740935 -121.116180 175 24962ft 355kts
23-Oct-20 14:48 38.644414 -121.100001 175 23203ft 342kts
23-Oct-20 14:49 38.552113 -121.084362 174 21531ft 330kts
23-Oct-20 14:50 38.462425 -121.069234 174 19906ft 322kts
23-Oct-20 14:51 38.374240 -121.054388 173 18311ft 317kts
23-Oct-20 14:52 38.288349 -121.039926 173 16754ft 306kts
23-Oct-20 14:53 38.204768 -121.025866 172 15247ft 301kts
23-Oct-20 14:54 38.127719 -120.995945 123 13288ft 293kts
23-Oct-20 14:55 38.111670 -120.898426 102 10860ft 287kts
23-Oct-20 14:56 38.095632 -120.801918 102 8457ft 274kts
23-Oct-20 14:57 38.080264 -120.709915 102 6571ft 256kts
23-Oct-20 14:58 38.065852 -120.623971 102 5237ft 244kts
23-Oct-20 14:59 38.041251 -120.548268 140 3919ft 220kts
23-Oct-20 15:00 38.000598 -120.509851 135 3246ft 144kts
23-Oct-20 15:01 37.983740 -120.469974 112 2879ft 121kts
23-Oct-20 15:02 37.982397 -120.428299 40 3027ft 117kts
23-Oct-20 15:03 38.014002 -120.416658 8 2483ft 118kts
23-Oct-20 15:04 38.032893 -120.412526 9 2107ft 3kts
23-Oct-20 15:05 38.033008 -120.411696 189 2114ft 12kts
23-Oct-20 15:06 38.029928 -120.411638 179 2096ft 0kts
23-Oct-20 15:07 38.029928 -120.411638 179 2096ft 0kts
23-Oct-20 15:08 38.029928 -120.411638 179 2096ft 0kts
23-Oct-20 15:09 38.029928 -120.411638 179 2096ft 0kts
23-Oct-20 15:10 38.029928 -120.411638 179 2096ft 0kts
23-Oct-20 15:11 38.029928 -120.411638 179 2096ft 0kts
23-Oct-20 15:12 38.029928 -120.411638 179 2096ft 0kts
23-Oct-20 15:13 38.029928 -120.411638 179 2096ft 0kts
23-Oct-20 15:14 38.029928 -120.411638 179 2096ft 0kts
23-Oct-20 15:15 38.029928 -120.411638 179 2096ft 0kts
23-Oct-20 15:16 38.029928 -120.411638 179 2096ft 0kts
23-Oct-20 15:17 38.029928 -120.411638 179 2096ft 0kts

Navigation Log

Ident Type
Flight plan parsing failed, navigation log unavailable